AirNav   TITAN Aviation Fuels
 
 544 users online  

KMQW Telfair-Wheeler Airport
Mc Rae, Georgia, USA

GOING TO MC RAE?


FAA INFORMATION EFFECTIVE 07 OCTOBER 2021

Location

FAA Identifier: MQW
Lat/Long: 32-05-49.1870N 082-52-45.8820W
32-05.819783N 082-52.764700W
32.0969964,-82.8794117
(estimated)
Elevation: 202.1 ft. / 61.6 m (surveyed)
Variation: 03W (1985)
From city: 3 miles NE of MC RAE, GA
Time zone: UTC -4 (UTC -5 during Standard Time)
Zip code: 31037

Airport Operations

Airport use: Open to the public
Activation date: 01/1968
Control tower: no
ARTCC: JACKSONVILLE CENTER
FSS: MACON FLIGHT SERVICE STATION
NOTAMs facility: MCN (NOTAM-D service available)
Attendance: UNATNND
Wind indicator: lighted
Segmented circle: yes
Lights: ACTVT REIL RWY 21; PAPI RWYS 03 & 21, MIRL RWY 03/21 - CTAF.
Beacon: white-green (lighted land airport)
Operates sunset to sunrise.

Airport Communications

CTAF: 122.9
WX AWOS-3PT: 120.000 (229-868-7472)
WX AWOS-3 at EZM (15 nm NW): 119.425 (478-374-9979)
WX AWOS-3 at AZE (17 nm SE): 119.125 ((912) 375-0650)
  • APCH/DEP SVC PRVDD BY JACKSONVILLE ARTCC ON FREQS 127.575/269.025 (ALMA RCAG).

Nearby radio navigation aids

VOR radial/distance  VOR name  Freq  Var
DBNr190/28.1DUBLIN VORTAC113.1005W
VNAr102/32.2VIENNA VORTAC116.5001E
AMGr331/38.6ALMA VORTAC115.1000E

 
NDB name  Hdg/Dist  Freq  Var  ID
MC RAEat field28003WMQW -- --.- .--
EASTMAN102/14.136604WEZM . --.. --
HAZLEHURST324/17.641406WAZE .- --.. .
ONYUN262/30.537206WUQN ..- --.- -.
BAXLEY319/34.037606WBHC -... .... -.-.
FITZGERALD041/35.836205WSUR ... ..- .-.

Airport Services

Fuel available: 100LL JET-A+
Parking: tiedowns
Airframe service: NONE
Powerplant service: NONE
Bottled oxygen: NONE
Bulk oxygen: NONE

Runway Information

Runway 3/21

Dimensions: 5001 x 75 ft. / 1524 x 23 m
Surface: asphalt, in good condition
Weight bearing capacity: 
Single wheel: 30.0
Runway edge lights: medium intensity
RUNWAY 3  RUNWAY 21
Latitude: 32-05.439585N32-06.199975N
Longitude: 082-52.952282W082-52.577108W
Elevation: 201.9 ft.192.6 ft.
Traffic pattern: leftleft
Runway heading: 026 magnetic, 023 true206 magnetic, 203 true
Markings: nonprecision, in good conditionnonprecision, in good condition
Visual slope indicator: 2-light PAPI on left (3.00 degrees glide path)2-light PAPI on left (3.00 degrees glide path)
Runway end identifier lights: yes
Touchdown point: yes, no lightsyes, no lights
Obstructions: 33 ft. trees, 662 ft. from runway, 325 ft. left of centerline, 14:1 slope to clear62 ft. trees, 1440 ft. from runway, 350 ft. right of centerline, 20:1 slope to clear

Airport Ownership and Management from official FAA records

Ownership: Publicly-owned
Owner: TELFAIR-WHEELER AIRPORT AUTH
P.O. BOX 192
MC RAE, GA 30411
Phone 229-315-1227
Manager: JIMMY RAY
P.O. BOX 192
MCRAE, GA 31055
Phone 229-315-1227

Airport Operational Statistics

Aircraft based on the field: 11
Single engine airplanes: 11
    
Aircraft operations: avg 105/week *
64% transient general aviation
36% local general aviation
* for 12-month period ending 31 December 2019

Additional Remarks

FOR CD CTC JACKSONVILLE ARTCC AT 904-845-1592.

Instrument Procedures

NOTE: All procedures below are presented as PDF files. If you need a reader for these files, you should download the free Adobe Reader.

NOT FOR NAVIGATION. Please procure official charts for flight.
FAA instrument procedures published for use from 07 October 2021 at 0901Z to 04 November 2021 at 0900z.

 
IAPs - Instrument Approach Procedures
RNAV (GPS) RWY 03 **CHANGED**   download (217KB)
RNAV (GPS) RWY 21 **CHANGED**   download (199KB)
NOTE: Special Take-Off Minimums/Departure Procedures apply   download (189KB)

Other nearby airports with instrument procedures:

KEZM - Heart of Georgia Regional Airport (15 nm NW)
KAZE - Hazlehurst Airport (17 nm SE)
KVDI - Vidalia Regional Airport (26 nm E)
48A - Cochran Airport (27 nm NW)
KDBN - W H 'Bud' Barron Airport (29 nm N)
 
Loc | Ops | Rwys | IFR | FBO | Links
Com | Nav | Svcs | Stats | Notes
Area around KMQW (Telfair-Wheeler Airport)
 
Road maps at: MapQuest Bing Google
 
Aerial photo
WARNING: Photo may not be current or correct
Aerial photo of KMQW (Telfair-Wheeler Airport)
Photo by F. Allen Kyzer
Photo taken 21-Oct-2009
from a C-182.

Do you have a better or more recent aerial photo of Telfair-Wheeler Airport that you would like to share? If so, please send us your photo.

 
Sectional chart

 
Airport distance calculator
Flying to Telfair-Wheeler Airport? Find the distance to fly.

From to KMQW

Sunrise and sunset
Times for 19-Oct-2021
 Local
(UTC-4)
 Zulu
(UTC)
Morning civil twilight07:1411:14
Sunrise07:3911:39
Sunset18:5422:54
Evening civil twilight19:1923:19

Current date and time
Zulu (UTC)  19-Oct-2021 05:26:13
Local (UTC-4)  19-Oct-2021 01:26:13
 
METAR
KEZM 
15nm NW 
190515Z AUTO 00000KT 3SM BR SCT002 08/08 A3020 RMK AO2 T00810079
KAZE 
17nm SE 
190515Z AUTO 00000KT 10SM CLR 10/09 A3019 RMK AO2 T01030089
KVDI 
27nm E 
190515Z AUTO 00000KT 10SM CLR 10/08 A3019 RMK AO2
K48A 
27nm NW 
190515Z AUTO 00000KT 10SM CLR 08/08 A3019 RMK AO2 T00850081
KDBN 
29nm N 
190515Z AUTO 00000KT 10SM CLR 08/07 A3021 RMK AO2
TAF
KWRB 
47nm NW 
190000Z 1900/2006 VRB06KT 9999 FEW250 QNH3013INS TX23/1921Z TN08/1912Z
NOTAMs
Click for the latest NOTAMs
NOTAMs are issued by the DoD/FAA and will open in a separate window not controlled by AirNav.

 

 
 

FBO, Fuel Providers, and Aircraft Ground Support

  
 Business Name 
 
 Contact 
 
 Services / Description 
 
Fuel Prices
 
Comments
  
Telfair-Wheeler Airport Authority 229-315-1227
[web site]
[email]
Airport management, Aviation fuel, Aircraft parking (ramp or tiedown), Pilots lounge / snooze room, Restrooms, Showers

More info about Telfair-Wheeler Airport Authority
independent
100LL Jet A
SS $4.59 $2.99 
 Updated 04-Oct-2021
 
   write
SS=Self service
Update Fuel Prices
 

Would you like to see your business listed on this page?

 If your business provides an interesting product or service to pilots, flight crews, aircraft, or users of the Telfair-Wheeler Airport, you should consider listing it here.  To start the listing process, click on the button below
 
Add a business
 

Other Pages about Telfair-Wheeler Airport

Update a link
 
Copyright © AirNav, LLC. All rights reserved. Privacy Policy  Contact